createdAt,value
2017-03-26T00:02:16.374Z,42.8
2017-03-26T00:04:39.736Z,42.41
2017-03-26T00:06:54.701Z,42.03
2017-03-26T00:09:18.069Z,42.41
2017-03-26T00:11:32.928Z,42.13
2017-03-26T00:13:56.300Z,42.68
2017-03-26T00:16:19.668Z,42.8
2017-03-26T00:18:34.628Z,42.32
2017-03-26T00:20:58.007Z,42.32
2017-03-26T00:23:12.982Z,42.51
2017-03-26T00:25:27.939Z,42.77
2017-03-26T00:27:51.292Z,42.87
2017-03-26T00:30:14.668Z,42.49
2017-03-26T00:32:37.928Z,42.13
2017-03-26T00:35:01.294Z,42.03
2017-03-26T00:37:24.551Z,42.03
2017-03-26T00:39:39.538Z,42.03
2017-03-26T00:42:02.886Z,41.94
2017-03-26T00:44:26.257Z,42.2
2017-03-26T00:46:49.634Z,42.87
2017-03-26T00:49:12.986Z,42.68
2017-03-26T00:51:36.347Z,42.94
2017-03-26T00:53:59.719Z,42.77
2017-03-26T00:56:23.074Z,42.68
2017-03-26T00:58:24.228Z,42.68
2017-03-26T01:00:47.583Z,42.87
2017-03-26T01:03:10.951Z,42.58
2017-03-26T01:05:25.916Z,42.68
2017-03-26T01:07:40.880Z,42.77
2017-03-26T01:09:42.001Z,43.16
2017-03-26T01:12:05.291Z,43.06
2017-03-26T01:14:20.262Z,43.8
2017-03-26T01:16:35.124Z,43.99
2017-03-26T01:18:36.231Z,43.71
2017-03-26T01:20:59.524Z,43.71
2017-03-26T01:23:22.789Z,43.23
2017-03-26T01:25:37.660Z,43.61
2017-03-26T01:27:52.534Z,43.42
2017-03-26T01:30:15.786Z,43.8
2017-03-26T01:32:39.041Z,44.18
2017-03-26T01:35:02.306Z,44.09
2017-03-26T01:37:25.578Z,44.37
2017-03-26T01:39:48.835Z,44.75
2017-03-26T01:42:12.101Z,44.85
2017-03-26T01:44:13.209Z,45.32
2017-03-26T01:46:36.511Z,45.42
2017-03-26T01:48:59.772Z,45.14
2017-03-26T01:51:14.638Z,45.14
2017-03-26T01:53:37.900Z,45.42
2017-03-26T01:56:01.163Z,45.32
2017-03-26T01:58:24.425Z,45.42
2017-03-26T02:00:39.281Z,45.42
2017-03-26T02:02:32.511Z,45.61
2017-03-26T02:04:55.805Z,45.61
2017-03-26T02:07:05.870Z,45.61
2017-03-26T02:09:29.122Z,45.8
2017-03-26T02:11:52.385Z,45.8
2017-03-26T02:14:07.246Z,45.23
2017-03-26T02:16:30.517Z,45.42
2017-03-26T02:18:53.779Z,45.23
2017-03-26T02:21:17.032Z,45.32
2017-03-26T02:23:40.302Z,45.32
2017-03-26T02:25:55.171Z,44.85
2017-03-26T02:28:18.427Z,45.23
2017-03-26T02:30:41.691Z,45.14
2017-03-26T02:32:56.557Z,45.14
2017-03-26T02:35:19.815Z,45.61
2017-03-26T02:37:43.311Z,45.51
2017-03-26T02:40:07.839Z,45.51
2017-03-26T02:42:32.301Z,45.7
2017-03-26T02:44:55.467Z,46.37
2017-03-26T02:47:18.597Z,45.61
2017-03-26T02:49:41.934Z,46.37
2017-03-26T02:51:57.750Z,46.28
2017-03-26T02:54:20.998Z,46.56
2017-03-26T02:56:44.291Z,46.66
2017-03-26T02:59:07.636Z,46.28
2017-03-26T03:01:30.899Z,48.16
2017-03-26T03:03:54.162Z,47.78
2017-03-26T03:06:17.417Z,47.58
2017-03-26T03:08:32.299Z,47.78
2017-03-26T03:10:55.542Z,48.25
2017-03-26T03:13:19.731Z,48.44
2017-03-26T03:15:42.990Z,48.82
2017-03-26T03:17:44.609Z,48.44
2017-03-26T03:20:07.902Z,48.25
2017-03-26T03:22:31.172Z,49.2
2017-03-26T03:24:54.432Z,49.2
2017-03-26T03:27:17.698Z,48.82
2017-03-26T03:29:40.969Z,49.2
2017-03-26T03:32:04.240Z,49.11
2017-03-26T03:34:27.506Z,49.01
2017-03-26T03:36:50.750Z,49.2
2017-03-26T03:39:14.010Z,49.46
2017-03-26T03:41:37.276Z,49.49
2017-03-26T03:44:01.563Z,49.3
2017-03-26T03:46:24.829Z,49.49
2017-03-26T03:48:31.306Z,49.4
2017-03-26T03:50:54.622Z,49.4
2017-03-26T03:53:17.826Z,48.92
2017-03-26T03:55:19.625Z,48.92
2017-03-26T03:57:34.442Z,49.4
2017-03-26T03:59:57.706Z,49.2
2017-03-26T04:02:20.957Z,49.75
2017-03-26T04:04:44.134Z,49.56
2017-03-26T04:07:07.394Z,50.6
2017-03-26T04:09:30.651Z,50.6
2017-03-26T04:11:53.819Z,50.99
2017-03-26T04:14:08.593Z,51.46
2017-03-26T04:16:31.842Z,51.27
2017-03-26T04:18:56.029Z,50.79
2017-03-26T04:21:19.293Z,50.51
2017-03-26T04:23:42.552Z,50.04
2017-03-26T04:25:57.411Z,49.87
2017-03-26T04:27:50.649Z,49.11
2017-03-26T04:29:51.815Z,49.49
2017-03-26T04:32:15.066Z,49.49
2017-03-26T04:34:30.868Z,49.2
2017-03-26T04:36:54.126Z,48.73
2017-03-26T04:38:55.761Z,49.3
2017-03-26T04:41:19.043Z,49.2
2017-03-26T04:43:42.311Z,49.3
2017-03-26T04:46:05.599Z,49.11
2017-03-26T04:48:28.841Z,50.42
2017-03-26T04:50:52.107Z,50.04
2017-03-26T04:53:15.356Z,49.75
2017-03-26T04:55:38.727Z,49.77
2017-03-26T04:57:40.298Z,49.94
2017-03-26T04:59:55.140Z,49.94
2017-03-26T05:01:56.695Z,49.94
2017-03-26T05:04:19.974Z,49.27
2017-03-26T05:06:43.214Z,49.46
2017-03-26T05:09:06.386Z,49.2
2017-03-26T05:11:29.653Z,48.92
2017-03-26T05:13:52.809Z,49.37
2017-03-26T05:16:15.974Z,49.37
2017-03-26T05:18:17.584Z,50.13
2017-03-26T05:20:40.794Z,49.27
2017-03-26T05:23:04.048Z,49.01
2017-03-26T05:25:14.150Z,49.11
2017-03-26T05:27:15.314Z,48.44
2017-03-26T05:29:38.607Z,48.25
2017-03-26T05:32:01.752Z,47.49
2017-03-26T05:34:16.528Z,47.49
2017-03-26T05:36:39.795Z,47.39
2017-03-26T05:38:54.653Z,46.66
2017-03-26T05:41:04.766Z,46.28
2017-03-26T05:43:28.070Z,45.42
2017-03-26T05:45:51.357Z,44.01
2017-03-26T05:48:14.607Z,42.7
2017-03-26T05:50:29.481Z,42.15
2017-03-26T05:52:52.842Z,39.88
2017-03-26T05:55:16.220Z,38.56
2017-03-26T05:57:39.586Z,36.1
2017-03-26T06:00:03.039Z,34.22
2017-03-26T06:02:26.511Z,33.28
2017-03-26T06:04:50.088Z,30.64
2017-03-26T06:07:05.276Z,28.85
2017-03-26T06:09:28.943Z,27.6
2017-03-26T06:11:52.528Z,25.16
2017-03-26T06:14:16.275Z,23.74
2017-03-26T06:16:40.065Z,21.92
2017-03-26T06:19:03.842Z,21.17
2017-03-26T06:21:27.651Z,19.84
2017-03-26T06:23:51.679Z,21.72
2017-03-26T06:26:15.406Z,24.56
2017-03-26T06:28:39.145Z,25.42
2017-03-26T06:30:54.523Z,27.68
2017-03-26T06:33:09.896Z,27.79
2017-03-26T06:35:20.211Z,28.64
2017-03-26T06:37:44.040Z,27.89
2017-03-26T06:39:54.307Z,28.35
2017-03-26T06:41:56.183Z,28.63
2017-03-26T06:44:20.027Z,31.18
2017-03-26T06:46:43.809Z,31.93
2017-03-26T06:48:59.083Z,31.37
2017-03-26T06:51:22.743Z,29.41
2017-03-26T06:53:33.008Z,28.64
2017-03-26T06:55:56.787Z,26.1
2017-03-26T06:58:20.671Z,19.3
2017-03-26T07:00:44.765Z,14.9
2017-03-26T07:03:08.947Z,12.22
2017-03-26T07:05:24.750Z,9.54
2017-03-26T07:07:35.986Z,8.47
2017-03-26T07:10:00.427Z,7.03
2017-03-26T07:12:25.143Z,6.54
2017-03-26T07:14:41.427Z,7.01
2017-03-26T07:17:07.260Z,6.45
2017-03-26T07:19:32.307Z,4.6
2017-03-26T07:21:57.405Z,4.8
2017-03-26T07:24:22.599Z,4.02
2017-03-26T07:26:47.857Z,3.92
2017-03-26T07:29:13.257Z,2.36
2017-03-26T07:31:38.658Z,1.57
2017-03-26T07:34:04.293Z,2.45
2017-03-26T07:36:29.910Z,3.23
2017-03-26T07:38:55.619Z,3.23
2017-03-26T07:41:21.348Z,3.23
2017-03-26T07:43:47.184Z,2.65
2017-03-26T07:46:12.910Z,2.65
2017-03-26T07:48:30.120Z,1.87
2017-03-26T07:50:55.966Z,3.72
2017-03-26T07:53:21.755Z,3.23
2017-03-26T07:55:47.622Z,2.06
2017-03-26T07:58:13.399Z,0.98
2017-03-26T08:00:39.254Z,0.98
2017-03-26T08:03:04.967Z,2.36
2017-03-26T08:05:30.798Z,3.72
2017-03-26T08:07:56.415Z,8.15
2017-03-26T08:10:22.174Z,11.8
2017-03-26T08:12:47.824Z,11.03
2017-03-26T08:15:13.366Z,10.94
2017-03-26T08:17:38.949Z,11.61
2017-03-26T08:20:04.218Z,13.6
2017-03-26T08:22:29.383Z,13.9
2017-03-26T08:24:54.281Z,15.71
2017-03-26T08:27:19.078Z,18.76
2017-03-26T08:29:43.769Z,18.95
2017-03-26T08:32:08.329Z,19.92
2017-03-26T08:34:32.685Z,19.15
2017-03-26T08:36:34.162Z,18.58
2017-03-26T08:38:58.382Z,19.24
2017-03-26T08:41:22.748Z,20.1
2017-03-26T08:43:46.733Z,23.41
2017-03-26T08:46:10.819Z,22.85
2017-03-26T08:48:34.887Z,21.34
2017-03-26T08:50:58.962Z,21.23
2017-03-26T08:53:23.256Z,20.86
2017-03-26T08:55:48.220Z,20.87
2017-03-26T08:58:12.252Z,20.86
2017-03-26T09:00:36.300Z,21.15
2017-03-26T09:03:00.696Z,20.23
2017-03-26T09:05:25.120Z,19.06
2017-03-26T09:07:49.202Z,19.93
2017-03-26T09:10:14.193Z,19.73
2017-03-26T09:12:38.401Z,20.59
2017-03-26T09:14:54.411Z,19.17
2017-03-26T09:17:18.552Z,19.98
2017-03-26T09:19:42.881Z,22.76
2017-03-26T09:22:07.025Z,22.58
2017-03-26T09:24:31.101Z,20.4
2017-03-26T09:26:55.137Z,19.93
2017-03-26T09:29:19.163Z,19.65
2017-03-26T09:31:43.264Z,20.58
2017-03-26T09:34:07.821Z,19.65
2017-03-26T09:36:32.964Z,19.26
2017-03-26T09:38:56.969Z,19.26
2017-03-26T09:41:21.207Z,18.79
2017-03-26T09:43:44.969Z,19.55
2017-03-26T09:45:46.393Z,18.99
2017-03-26T09:48:10.459Z,18.4
2017-03-26T09:50:34.545Z,19.64
2017-03-26T09:52:58.580Z,18.6
2017-03-26T09:55:22.618Z,19.82
2017-03-26T09:57:46.664Z,23.71
2017-03-26T10:00:02.237Z,22.66
2017-03-26T10:02:26.212Z,21.54
2017-03-26T10:04:51.269Z,20.11
2017-03-26T10:07:15.458Z,21.72
2017-03-26T10:09:54.202Z,21.64
2017-03-26T10:12:18.102Z,21.73
2017-03-26T10:14:43.087Z,20.89
2017-03-26T10:17:07.143Z,22.59
2017-03-26T10:19:31.012Z,21.73
2017-03-26T10:21:55.001Z,23.82
2017-03-26T10:24:20.960Z,22.11
2017-03-26T10:26:45.952Z,21.64
2017-03-26T10:29:09.965Z,23.14
2017-03-26T10:31:40.811Z,23.52
2017-03-26T10:34:04.793Z,23.44
2017-03-26T10:36:28.571Z,22.01
2017-03-26T10:38:52.472Z,22.59
2017-03-26T10:41:16.539Z,21.92
2017-03-26T10:43:40.459Z,20.13
2017-03-26T10:46:04.393Z,21.54
2017-03-26T10:48:28.380Z,22.69
2017-03-26T10:50:52.218Z,24.38
2017-03-26T10:53:16.115Z,23.63
2017-03-26T10:55:39.967Z,24.39
2017-03-26T10:58:03.896Z,24.96
2017-03-26T11:00:27.688Z,23.54
2017-03-26T11:02:52.474Z,23.91
2017-03-26T11:05:16.340Z,25.62
2017-03-26T11:07:40.235Z,24.76
2017-03-26T11:10:04.104Z,24.4
2017-03-26T11:12:19.509Z,26.38
2017-03-26T11:14:43.357Z,26.38
2017-03-26T11:17:07.281Z,25.05
2017-03-26T11:19:31.047Z,25.34
2017-03-26T11:21:55.693Z,26.28
2017-03-26T11:24:19.565Z,26.3
2017-03-26T11:26:52.248Z,25.99
2017-03-26T11:29:16.262Z,26.3
2017-03-26T11:31:40.155Z,25.34
2017-03-26T11:34:04.079Z,26.1
2017-03-26T11:36:29.034Z,26.01
2017-03-26T11:38:54.677Z,26.28
2017-03-26T11:41:18.711Z,25.16
2017-03-26T11:43:42.719Z,25.43
2017-03-26T11:46:06.502Z,24.6
2017-03-26T11:48:30.431Z,25.06
2017-03-26T11:50:55.232Z,25.15
2017-03-26T11:53:20.285Z,25.43
2017-03-26T11:55:44.173Z,25.35
2017-03-26T11:58:08.073Z,24.58
2017-03-26T12:00:23.594Z,24.77
2017-03-26T12:02:35.677Z,24.4
2017-03-26T12:05:00.060Z,24.66
2017-03-26T12:07:24.142Z,24.37
2017-03-26T12:09:48.065Z,24.19
2017-03-26T12:12:11.873Z,24.01
2017-03-26T12:14:37.229Z,25.15
2017-03-26T12:17:01.145Z,24.68
2017-03-26T12:19:24.924Z,25.06
2017-03-26T12:21:55.313Z,25.15
2017-03-26T12:24:19.180Z,24.95
2017-03-26T12:26:44.112Z,25.26
2017-03-26T12:29:07.947Z,25.92
2017-03-26T12:31:33.734Z,25.13
2017-03-26T12:33:57.625Z,25.43
2017-03-26T12:36:21.531Z,24.4
2017-03-26T12:38:45.472Z,25.83
2017-03-26T12:41:09.510Z,24.95
2017-03-26T12:43:36.230Z,25.72
2017-03-26T12:46:01.246Z,25.34
2017-03-26T12:48:26.014Z,26.03
2017-03-26T12:50:49.932Z,24.96
2017-03-26T12:53:15.603Z,26.01
2017-03-26T12:55:39.474Z,25.26
2017-03-26T12:58:03.360Z,25.43
2017-03-26T13:00:27.344Z,24.96
2017-03-26T13:02:51.307Z,26.09
2017-03-26T13:05:15.136Z,25.9
2017-03-26T13:07:38.961Z,25.43
2017-03-26T13:10:02.859Z,24.95
2017-03-26T13:12:26.809Z,24.57
2017-03-26T13:14:50.776Z,23.43
2017-03-26T13:17:14.704Z,24.76
2017-03-26T13:19:38.555Z,24.2
2017-03-26T13:22:02.565Z,23.91
2017-03-26T13:24:26.492Z,24.39
2017-03-26T13:26:50.313Z,24.76
2017-03-26T13:29:14.167Z,24.18
2017-03-26T13:31:40.000Z,24.19
2017-03-26T13:33:55.440Z,22.85
2017-03-26T13:36:20.387Z,23.33
2017-03-26T13:38:35.816Z,21.69
2017-03-26T13:40:59.787Z,18.43
2017-03-26T13:43:24.661Z,17.65
2017-03-26T13:45:48.507Z,18.8
2017-03-26T13:48:12.425Z,20.83
2017-03-26T13:50:36.249Z,22.16
2017-03-26T13:53:00.151Z,22.74
2017-03-26T13:55:25.078Z,21.68
2017-03-26T13:57:49.090Z,22.17
2017-03-26T14:00:12.910Z,22.16
2017-03-26T14:02:36.687Z,22.17
2017-03-26T14:05:00.548Z,21.88
2017-03-26T14:07:24.448Z,19.58
2017-03-26T14:09:48.304Z,19.76
2017-03-26T14:12:12.328Z,19.38
2017-03-26T14:14:36.179Z,21.3
2017-03-26T14:17:00.051Z,21.69
2017-03-26T14:19:23.934Z,20.54
2017-03-26T14:21:47.769Z,19.67
2017-03-26T14:24:11.677Z,21.3
2017-03-26T14:26:35.557Z,21.31
2017-03-26T14:29:00.471Z,21.78
2017-03-26T14:31:24.352Z,21.5
2017-03-26T14:33:48.188Z,22.64
2017-03-26T14:36:12.102Z,23.21
2017-03-26T14:38:35.892Z,22.84
2017-03-26T14:40:59.752Z,23.6
2017-03-26T14:43:23.613Z,23.61
2017-03-26T14:45:47.476Z,23.31
2017-03-26T14:47:48.836Z,22.94
2017-03-26T14:50:12.696Z,23.13
2017-03-26T14:52:14.527Z,22.94
2017-03-26T14:54:38.436Z,23.13
2017-03-26T14:57:02.380Z,23.03
2017-03-26T14:59:17.677Z,22.84
2017-03-26T15:01:41.464Z,22.84
2017-03-26T15:04:05.255Z,23.13
2017-03-26T15:06:29.024Z,23.32
2017-03-26T15:08:52.782Z,22.65
2017-03-26T15:11:16.524Z,23.42
2017-03-26T15:13:40.271Z,24.08
2017-03-26T15:16:04.016Z,24.28
2017-03-26T15:18:27.817Z,24.09
2017-03-26T15:20:34.767Z,24.85
2017-03-26T15:22:50.104Z,24.85
2017-03-26T15:25:13.862Z,25.04
2017-03-26T15:27:29.216Z,25.23
2017-03-26T15:29:44.544Z,25.15
2017-03-26T15:31:59.849Z,25.32
2017-03-26T15:34:23.585Z,25.81
2017-03-26T15:36:47.348Z,24.95
2017-03-26T15:39:11.137Z,25.81
2017-03-26T15:41:34.905Z,25.9
2017-03-26T15:43:58.628Z,26.09
2017-03-26T15:46:22.395Z,25.61
2017-03-26T15:48:46.176Z,25.71
2017-03-26T15:51:09.892Z,25.99
2017-03-26T15:53:33.576Z,25.71
2017-03-26T15:55:57.297Z,25.23
2017-03-26T15:58:21.007Z,25.32
2017-03-26T16:00:44.731Z,25.13
2017-03-26T16:03:08.429Z,25.89
2017-03-26T16:05:32.177Z,25.32
2017-03-26T16:07:55.929Z,25.24
2017-03-26T16:10:19.655Z,25.32
2017-03-26T16:12:43.383Z,26.27
2017-03-26T16:15:07.118Z,26.37
2017-03-26T16:17:30.795Z,26.46
2017-03-26T16:19:54.434Z,26.27
2017-03-26T16:22:18.139Z,26.28
2017-03-26T16:24:41.836Z,26.19
2017-03-26T16:27:05.520Z,26.46
2017-03-26T16:29:29.178Z,26.85
2017-03-26T16:31:30.428Z,26.46
2017-03-26T16:33:45.760Z,27.04
2017-03-26T16:36:09.545Z,27.42
2017-03-26T16:38:33.240Z,27.33
2017-03-26T16:40:56.929Z,27.23
2017-03-26T16:43:20.658Z,27.42
2017-03-26T16:45:44.359Z,27.52
2017-03-26T16:48:08.081Z,27.31
2017-03-26T16:50:09.335Z,27.89
2017-03-26T16:52:33.080Z,27.52
2017-03-26T16:54:56.784Z,27.52
2017-03-26T16:57:20.497Z,27.9
2017-03-26T16:59:44.142Z,28.27
2017-03-26T17:02:07.928Z,27.89
2017-03-26T17:04:31.611Z,28.66
2017-03-26T17:06:55.536Z,28.94
2017-03-26T17:09:20.035Z,28.56
2017-03-26T17:11:43.855Z,29.23
2017-03-26T17:14:07.384Z,29.33
2017-03-26T17:16:31.168Z,29.69
2017-03-26T17:18:55.842Z,29.33
2017-03-26T17:21:19.618Z,29.52
2017-03-26T17:23:43.550Z,30.08
2017-03-26T17:26:07.392Z,30.46
2017-03-26T17:28:31.149Z,30.09
2017-03-26T17:30:54.937Z,30.09
2017-03-26T17:33:18.724Z,30.46
2017-03-26T17:35:42.478Z,30.94
2017-03-26T17:37:57.996Z,31.42
2017-03-26T17:40:30.485Z,31.23
2017-03-26T17:42:54.095Z,31.23
2017-03-26T17:45:17.934Z,32.09
2017-03-26T17:47:41.745Z,32.17
2017-03-26T17:50:05.739Z,32.38
2017-03-26T17:52:29.412Z,32.28
2017-03-26T17:54:54.151Z,32.26
2017-03-26T17:57:17.918Z,32.38
2017-03-26T17:59:41.931Z,32.55
2017-03-26T18:02:07.269Z,32.47
2017-03-26T18:04:32.004Z,32.55
2017-03-26T18:06:55.666Z,32.75
2017-03-26T18:09:20.363Z,32.65
2017-03-26T18:11:44.054Z,33.12
2017-03-26T18:14:07.736Z,32.65
2017-03-26T18:16:31.480Z,33.12
2017-03-26T18:18:56.088Z,33.61
2017-03-26T18:21:20.869Z,33.49
2017-03-26T18:23:31.259Z,33.87
2017-03-26T18:25:54.917Z,33.87
2017-03-26T18:28:18.661Z,34.06
2017-03-26T18:30:42.414Z,33.87
2017-03-26T18:33:08.245Z,33.69
2017-03-26T18:35:47.190Z,34.26
2017-03-26T18:39:53.288Z,34.36
2017-03-26T18:42:24.707Z,33.97
2017-03-26T18:44:48.292Z,34.06
2017-03-26T18:47:12.021Z,34.26
2017-03-26T18:49:36.700Z,34.45
2017-03-26T18:52:01.375Z,34.45
2017-03-26T18:54:24.908Z,34.55
2017-03-26T18:56:49.759Z,35.12
2017-03-26T18:59:15.466Z,35.41
2017-03-26T19:01:40.329Z,35.77
2017-03-26T19:04:06.111Z,36.06
2017-03-26T19:06:30.862Z,36.25
2017-03-26T19:08:54.893Z,36.63
2017-03-26T19:11:18.689Z,36.71
2017-03-26T19:13:42.726Z,37.38
2017-03-26T19:16:06.606Z,37.38
2017-03-26T19:18:30.647Z,37.66
2017-03-26T19:21:02.471Z,37.76
2017-03-26T19:23:26.338Z,37.95
2017-03-26T19:26:04.732Z,37.95
2017-03-26T19:28:28.368Z,37.76
2017-03-26T19:30:52.058Z,37.85
2017-03-26T19:33:15.547Z,38.53
2017-03-26T19:35:39.785Z,38.79
2017-03-26T19:38:03.361Z,39.75
2017-03-26T19:42:05.235Z,39.29
2017-03-26T19:44:29.955Z,39.65
2017-03-26T19:46:53.976Z,40.13
2017-03-26T19:49:17.747Z,39.94
2017-03-26T19:51:41.256Z,40.52
2017-03-26T19:54:04.843Z,40.8
2017-03-26T19:56:44.077Z,40.89
2017-03-26T19:59:14.461Z,40.89
2017-03-26T20:01:45.914Z,41.09
2017-03-26T20:04:09.550Z,40.23
2017-03-26T20:06:33.003Z,40.52
2017-03-26T20:08:56.575Z,41.16
2017-03-26T20:11:21.242Z,41.09
2017-03-26T20:13:59.943Z,40.89
2017-03-26T20:16:31.485Z,40.99
2017-03-26T20:18:57.062Z,41.74
2017-03-26T20:21:21.703Z,41.83
2017-03-26T20:23:47.261Z,41.75
2017-03-26T20:26:13.889Z,41.74
2017-03-26T20:30:23.588Z,41.93
2017-03-26T20:32:53.955Z,41.74
2017-03-26T20:35:17.712Z,42.21
2017-03-26T20:37:41.563Z,41.74
2017-03-26T20:40:05.236Z,42.02
2017-03-26T20:42:28.822Z,43.07
2017-03-26T20:44:52.298Z,42.79
2017-03-26T20:47:15.958Z,42.79
2017-03-26T20:49:39.541Z,42.79
2017-03-26T20:52:03.088Z,42.02
2017-03-26T20:54:18.653Z,42.77
2017-03-26T20:56:42.367Z,42.69
2017-03-26T20:59:05.835Z,42.69
2017-03-26T21:01:30.185Z,42.77
2017-03-26T21:03:54.215Z,42.77
2017-03-26T21:06:18.007Z,42.79
2017-03-26T21:08:43.272Z,42.67
2017-03-26T21:11:07.080Z,42.77
2017-03-26T21:13:30.988Z,43.24
2017-03-26T21:15:55.259Z,43.05
2017-03-26T21:17:57.224Z,42.86
2017-03-26T21:20:22.418Z,42.77
2017-03-26T21:22:49.704Z,42.48
2017-03-26T21:25:14.245Z,42.48
2017-03-26T21:27:37.552Z,42.38
2017-03-26T21:30:00.974Z,42.67
2017-03-26T21:32:24.584Z,42.57
2017-03-26T21:34:48.003Z,42.1
2017-03-26T21:37:11.433Z,42.38
2017-03-26T21:39:23.576Z,42
2017-03-26T21:41:47.057Z,42.1
2017-03-26T21:44:10.857Z,42.77
2017-03-26T21:46:34.419Z,42.84
2017-03-26T21:48:57.925Z,42.74
2017-03-26T21:51:22.176Z,42.57
2017-03-26T21:53:37.625Z,42.74
2017-03-26T21:56:01.158Z,42.1
2017-03-26T21:58:24.653Z,42.46
2017-03-26T22:00:26.987Z,42.38
2017-03-26T22:02:51.282Z,42.46
2017-03-26T22:05:16.732Z,42.74
2017-03-26T22:07:40.421Z,42.55
2017-03-26T22:10:04.001Z,42.27
2017-03-26T22:12:29.375Z,42.74
2017-03-26T22:14:52.796Z,41.88
2017-03-26T22:17:07.969Z,41.88
2017-03-26T22:19:31.689Z,42.08
2017-03-26T22:21:55.129Z,42.55
2017-03-26T22:24:18.560Z,42.27
2017-03-26T22:26:43.095Z,42.08
2017-03-26T22:29:07.792Z,42.08
2017-03-26T22:31:31.128Z,42.15
2017-03-26T22:33:54.619Z,41.98
2017-03-26T22:36:18.303Z,42.27
2017-03-26T22:38:41.820Z,41.69
2017-03-26T22:41:05.177Z,41.6
2017-03-26T22:43:30.288Z,42.24
2017-03-26T22:45:53.749Z,41.67
2017-03-26T22:48:17.347Z,41.79
2017-03-26T22:50:19.062Z,41.58
2017-03-26T22:52:44.704Z,42.05
2017-03-26T22:55:09.450Z,42.15
2017-03-26T22:57:32.651Z,41.77
2017-03-26T22:59:56.231Z,42.05
2017-03-26T23:02:19.698Z,41.58
2017-03-26T23:04:43.212Z,41.86
2017-03-26T23:07:07.912Z,42.34
2017-03-26T23:09:32.455Z,43.1
2017-03-26T23:11:55.804Z,42.72
2017-03-26T23:14:19.322Z,42.34
2017-03-26T23:16:43.989Z,42.34
2017-03-26T23:19:08.416Z,42.82
2017-03-26T23:21:33.251Z,43.77
2017-03-26T23:23:49.295Z,43.77
2017-03-26T23:26:13.583Z,43.96
2017-03-26T23:28:36.586Z,44.32
2017-03-26T23:31:00.092Z,44.99
2017-03-26T23:33:23.378Z,44.51
2017-03-26T23:35:38.633Z,44.8
2017-03-26T23:38:02.191Z,44.32
2017-03-26T23:40:25.697Z,44.89
2017-03-26T23:42:55.861Z,44.51
2017-03-26T23:45:19.190Z,44.13
2017-03-26T23:47:34.262Z,44.59
2017-03-26T23:49:57.782Z,44.13
2017-03-26T23:52:21.087Z,44.23
2017-03-26T23:54:36.235Z,44.87
2017-03-26T23:56:59.596Z,45.56
2017-03-26T23:59:23.029Z,45.15
